sensor_id;sensor_type;location;lat;lon;timestamp;P1;durP1;ratioP1;P2;durP2;ratioP2
50900;SDS011;36879;51.416;6.678;2023-03-16T00:00:25;10.05;;;3.50;;
50900;SDS011;36879;51.416;6.678;2023-03-16T00:02:51;9.50;;;4.03;;
50900;SDS011;36879;51.416;6.678;2023-03-16T00:05:17;9.60;;;4.40;;
50900;SDS011;36879;51.416;6.678;2023-03-16T00:07:43;11.07;;;4.75;;
50900;SDS011;36879;51.416;6.678;2023-03-16T00:10:10;10.82;;;4.72;;
50900;SDS011;36879;51.416;6.678;2023-03-16T00:12:37;9.15;;;4.80;;
50900;SDS011;36879;51.416;6.678;2023-03-16T00:15:03;8.77;;;4.40;;
50900;SDS011;36879;51.416;6.678;2023-03-16T00:17:29;10.10;;;4.32;;
50900;SDS011;36879;51.416;6.678;2023-03-16T00:20:05;12.27;;;4.82;;
50900;SDS011;36879;51.416;6.678;2023-03-16T00:22:31;10.13;;;4.13;;
50900;SDS011;36879;51.416;6.678;2023-03-16T00:24:57;12.48;;;5.07;;
50900;SDS011;36879;51.416;6.678;2023-03-16T00:27:24;13.52;;;4.78;;
50900;SDS011;36879;51.416;6.678;2023-03-16T00:29:51;11.30;;;5.35;;
50900;SDS011;36879;51.416;6.678;2023-03-16T00:32:21;12.63;;;4.85;;
50900;SDS011;36879;51.416;6.678;2023-03-16T00:34:48;13.85;;;5.50;;
50900;SDS011;36879;51.416;6.678;2023-03-16T00:37:15;13.05;;;5.00;;
50900;SDS011;36879;51.416;6.678;2023-03-16T00:39:42;11.65;;;4.47;;
50900;SDS011;36879;51.416;6.678;2023-03-16T00:42:09;7.55;;;4.47;;
50900;SDS011;36879;51.416;6.678;2023-03-16T00:44:36;13.80;;;5.70;;
50900;SDS011;36879;51.416;6.678;2023-03-16T00:47:02;14.75;;;6.18;;
50900;SDS011;36879;51.416;6.678;2023-03-16T00:49:29;14.57;;;5.88;;
50900;SDS011;36879;51.416;6.678;2023-03-16T00:51:59;13.82;;;6.95;;
50900;SDS011;36879;51.416;6.678;2023-03-16T00:54:25;12.73;;;5.03;;
50900;SDS011;36879;51.416;6.678;2023-03-16T00:56:51;11.95;;;4.72;;
50900;SDS011;36879;51.416;6.678;2023-03-16T00:59:17;11.93;;;3.90;;
50900;SDS011;36879;51.416;6.678;2023-03-16T01:01:45;9.32;;;4.22;;
50900;SDS011;36879;51.416;6.678;2023-03-16T01:04:11;9.88;;;5.10;;
50900;SDS011;36879;51.416;6.678;2023-03-16T01:06:38;12.40;;;4.63;;
50900;SDS011;36879;51.416;6.678;2023-03-16T01:09:05;8.45;;;5.05;;
50900;SDS011;36879;51.416;6.678;2023-03-16T01:11:33;10.50;;;4.35;;
50900;SDS011;36879;51.416;6.678;2023-03-16T01:13:59;12.30;;;6.25;;
50900;SDS011;36879;51.416;6.678;2023-03-16T01:16:25;15.43;;;6.82;;
50900;SDS011;36879;51.416;6.678;2023-03-16T01:18:52;14.55;;;5.82;;
50900;SDS011;36879;51.416;6.678;2023-03-16T01:21:18;12.60;;;5.15;;
50900;SDS011;36879;51.416;6.678;2023-03-16T01:23:45;12.13;;;5.10;;
50900;SDS011;36879;51.416;6.678;2023-03-16T01:26:14;9.60;;;4.07;;
50900;SDS011;36879;51.416;6.678;2023-03-16T03:13:40;13.32;;;5.05;;
50900;SDS011;36879;51.416;6.678;2023-03-16T03:16:08;12.60;;;6.38;;
50900;SDS011;36879;51.416;6.678;2023-03-16T03:18:34;14.25;;;5.32;;
50900;SDS011;36879;51.416;6.678;2023-03-16T03:21:00;14.27;;;5.63;;
50900;SDS011;36879;51.416;6.678;2023-03-16T03:23:27;9.73;;;4.60;;
50900;SDS011;36879;51.416;6.678;2023-03-16T03:25:56;10.30;;;4.28;;
50900;SDS011;36879;51.416;6.678;2023-03-16T03:28:22;12.40;;;4.63;;
50900;SDS011;36879;51.416;6.678;2023-03-16T03:30:48;15.30;;;6.35;;
50900;SDS011;36879;51.416;6.678;2023-03-16T03:33:15;18.08;;;7.65;;
50900;SDS011;36879;51.416;6.678;2023-03-16T03:35:41;17.33;;;6.32;;
50900;SDS011;36879;51.416;6.678;2023-03-16T03:38:07;14.48;;;6.72;;
50900;SDS011;36879;51.416;6.678;2023-03-16T03:40:33;13.60;;;5.55;;
50900;SDS011;36879;51.416;6.678;2023-03-16T03:43:00;10.27;;;4.72;;
50900;SDS011;36879;51.416;6.678;2023-03-16T03:45:26;9.85;;;3.58;;
50900;SDS011;36879;51.416;6.678;2023-03-16T03:47:52;7.40;;;3.83;;
50900;SDS011;36879;51.416;6.678;2023-03-16T03:50:20;10.07;;;3.75;;
50900;SDS011;36879;51.416;6.678;2023-03-16T03:52:46;7.78;;;4.15;;
50900;SDS011;36879;51.416;6.678;2023-03-16T03:55:12;7.50;;;4.20;;
50900;SDS011;36879;51.416;6.678;2023-03-16T03:57:38;14.18;;;5.85;;
50900;SDS011;36879;51.416;6.678;2023-03-16T04:05:45;8.02;;;4.43;;
50900;SDS011;36879;51.416;6.678;2023-03-16T04:08:11;11.75;;;4.85;;
50900;SDS011;36879;51.416;6.678;2023-03-16T04:10:37;8.82;;;4.15;;
50900;SDS011;36879;51.416;6.678;2023-03-16T04:13:03;6.80;;;3.05;;
50900;SDS011;36879;51.416;6.678;2023-03-16T04:15:29;6.70;;;3.22;;
50900;SDS011;36879;51.416;6.678;2023-03-16T04:17:57;7.85;;;3.53;;
50900;SDS011;36879;51.416;6.678;2023-03-16T04:20:23;6.38;;;3.60;;
50900;SDS011;36879;51.416;6.678;2023-03-16T04:22:49;8.95;;;4.07;;
50900;SDS011;36879;51.416;6.678;2023-03-16T04:25:22;10.10;;;3.63;;
50900;SDS011;36879;51.416;6.678;2023-03-16T04:27:49;14.32;;;5.05;;
50900;SDS011;36879;51.416;6.678;2023-03-16T04:30:15;8.30;;;4.32;;
50900;SDS011;36879;51.416;6.678;2023-03-16T04:32:41;10.35;;;3.80;;
50900;SDS011;36879;51.416;6.678;2023-03-16T04:35:08;7.45;;;3.83;;
50900;SDS011;36879;51.416;6.678;2023-03-16T04:37:34;7.93;;;3.90;;
50900;SDS011;36879;51.416;6.678;2023-03-16T04:40:00;10.25;;;4.10;;
50900;SDS011;36879;51.416;6.678;2023-03-16T04:42:34;7.97;;;3.60;;
50900;SDS011;36879;51.416;6.678;2023-03-16T04:45:01;9.90;;;3.78;;
50900;SDS011;36879;51.416;6.678;2023-03-16T04:47:27;9.68;;;4.40;;
50900;SDS011;36879;51.416;6.678;2023-03-16T04:49:54;8.13;;;4.18;;
50900;SDS011;36879;51.416;6.678;2023-03-16T04:52:20;12.35;;;4.53;;
50900;SDS011;36879;51.416;6.678;2023-03-16T04:54:46;9.13;;;3.83;;
50900;SDS011;36879;51.416;6.678;2023-03-16T04:57:12;11.45;;;3.63;;
50900;SDS011;36879;51.416;6.678;2023-03-16T04:59:43;6.65;;;2.70;;
50900;SDS011;36879;51.416;6.678;2023-03-16T05:02:09;8.70;;;2.97;;
50900;SDS011;36879;51.416;6.678;2023-03-16T05:04:35;9.43;;;4.00;;
50900;SDS011;36879;51.416;6.678;2023-03-16T05:07:01;7.25;;;2.90;;
50900;SDS011;36879;51.416;6.678;2023-03-16T05:09:28;5.55;;;2.65;;
50900;SDS011;36879;51.416;6.678;2023-03-16T05:11:54;9.13;;;3.72;;
50900;SDS011;36879;51.416;6.678;2023-03-16T05:14:20;14.40;;;4.55;;
50900;SDS011;36879;51.416;6.678;2023-03-16T05:16:46;12.32;;;5.35;;
50900;SDS011;36879;51.416;6.678;2023-03-16T05:19:12;13.63;;;4.95;;
50900;SDS011;36879;51.416;6.678;2023-03-16T05:21:38;10.63;;;5.30;;
50900;SDS011;36879;51.416;6.678;2023-03-16T05:24:04;8.45;;;3.47;;
50900;SDS011;36879;51.416;6.678;2023-03-16T05:26:31;9.00;;;4.47;;
50900;SDS011;36879;51.416;6.678;2023-03-16T05:28:57;13.00;;;5.28;;
50900;SDS011;36879;51.416;6.678;2023-03-16T05:31:23;16.48;;;6.57;;
50900;SDS011;36879;51.416;6.678;2023-03-16T05:33:50;17.17;;;5.97;;
50900;SDS011;36879;51.416;6.678;2023-03-16T05:36:17;23.77;;;9.27;;
50900;SDS011;36879;51.416;6.678;2023-03-16T05:38:43;16.10;;;5.95;;
50900;SDS011;36879;51.416;6.678;2023-03-16T05:41:10;12.77;;;6.43;;
50900;SDS011;36879;51.416;6.678;2023-03-16T05:43:36;11.40;;;5.20;;
50900;SDS011;36879;51.416;6.678;2023-03-16T05:46:02;12.20;;;5.78;;
50900;SDS011;36879;51.416;6.678;2023-03-16T05:48:28;7.88;;;4.53;;
50900;SDS011;36879;51.416;6.678;2023-03-16T05:50:54;10.55;;;4.82;;
50900;SDS011;36879;51.416;6.678;2023-03-16T05:53:20;12.20;;;5.00;;
50900;SDS011;36879;51.416;6.678;2023-03-16T05:55:52;14.00;;;4.55;;
50900;SDS011;36879;51.416;6.678;2023-03-16T05:58:18;11.77;;;4.70;;
50900;SDS011;36879;51.416;6.678;2023-03-16T06:00:45;20.73;;;7.63;;
50900;SDS011;36879;51.416;6.678;2023-03-16T06:03:11;22.13;;;8.65;;
50900;SDS011;36879;51.416;6.678;2023-03-16T06:05:37;22.13;;;8.38;;
50900;SDS011;36879;51.416;6.678;2023-03-16T06:08:03;22.95;;;9.85;;
50900;SDS011;36879;51.416;6.678;2023-03-16T06:10:29;21.27;;;8.68;;
50900;SDS011;36879;51.416;6.678;2023-03-16T06:12:56;19.60;;;8.20;;
50900;SDS011;36879;51.416;6.678;2023-03-16T06:15:22;18.10;;;8.00;;
50900;SDS011;36879;51.416;6.678;2023-03-16T06:17:49;16.65;;;7.35;;
50900;SDS011;36879;51.416;6.678;2023-03-16T06:20:15;22.00;;;9.23;;
50900;SDS011;36879;51.416;6.678;2023-03-16T06:22:41;16.10;;;7.70;;
50900;SDS011;36879;51.416;6.678;2023-03-16T06:25:09;19.85;;;6.93;;
50900;SDS011;36879;51.416;6.678;2023-03-16T06:27:36;16.15;;;7.65;;
50900;SDS011;36879;51.416;6.678;2023-03-16T06:30:02;15.85;;;6.45;;
50900;SDS011;36879;51.416;6.678;2023-03-16T06:32:28;16.08;;;6.72;;
50900;SDS011;36879;51.416;6.678;2023-03-16T06:34:54;15.40;;;6.65;;
50900;SDS011;36879;51.416;6.678;2023-03-16T06:37:23;17.73;;;5.72;;
50900;SDS011;36879;51.416;6.678;2023-03-16T06:39:49;23.70;;;8.52;;
50900;SDS011;36879;51.416;6.678;2023-03-16T06:42:15;19.90;;;8.05;;
50900;SDS011;36879;51.416;6.678;2023-03-16T06:44:41;18.10;;;6.93;;
50900;SDS011;36879;51.416;6.678;2023-03-16T06:47:07;13.80;;;6.65;;
50900;SDS011;36879;51.416;6.678;2023-03-16T07:10:51;10.27;;;5.67;;
50900;SDS011;36879;51.416;6.678;2023-03-16T07:13:18;8.50;;;4.75;;
50900;SDS011;36879;51.416;6.678;2023-03-16T07:15:44;10.30;;;5.28;;
50900;SDS011;36879;51.416;6.678;2023-03-16T08:05:53;8.67;;;4.03;;
50900;SDS011;36879;51.416;6.678;2023-03-16T09:06:09;5.88;;;3.33;;
50900;SDS011;36879;51.416;6.678;2023-03-16T09:08:37;5.47;;;3.08;;
50900;SDS011;36879;51.416;6.678;2023-03-16T09:11:07;7.70;;;3.92;;
50900;SDS011;36879;51.416;6.678;2023-03-16T09:13:33;6.30;;;3.85;;
50900;SDS011;36879;51.416;6.678;2023-03-16T09:15:59;9.52;;;3.63;;
50900;SDS011;36879;51.416;6.678;2023-03-16T09:18:25;7.80;;;3.88;;
50900;SDS011;36879;51.416;6.678;2023-03-16T09:20:55;7.22;;;4.30;;
50900;SDS011;36879;51.416;6.678;2023-03-16T09:23:22;9.05;;;4.63;;
50900;SDS011;36879;51.416;6.678;2023-03-16T09:25:50;8.32;;;3.85;;
50900;SDS011;36879;51.416;6.678;2023-03-16T09:28:17;5.55;;;3.45;;
50900;SDS011;36879;51.416;6.678;2023-03-16T09:30:43;7.50;;;4.43;;
50900;SDS011;36879;51.416;6.678;2023-03-16T09:33:09;10.18;;;4.93;;
50900;SDS011;36879;51.416;6.678;2023-03-16T09:35:36;9.05;;;4.30;;
50900;SDS011;36879;51.416;6.678;2023-03-16T09:38:02;9.90;;;4.07;;
50900;SDS011;36879;51.416;6.678;2023-03-16T09:40:29;10.18;;;4.32;;
50900;SDS011;36879;51.416;6.678;2023-03-16T09:45:42;11.45;;;3.92;;
50900;SDS011;36879;51.416;6.678;2023-03-16T09:48:10;9.65;;;5.38;;
50900;SDS011;36879;51.416;6.678;2023-03-16T09:50:38;8.50;;;4.80;;
50900;SDS011;36879;51.416;6.678;2023-03-16T09:53:07;8.00;;;4.80;;
50900;SDS011;36879;51.416;6.678;2023-03-16T09:55:39;14.52;;;6.28;;
50900;SDS011;36879;51.416;6.678;2023-03-16T09:58:12;12.20;;;6.13;;
50900;SDS011;36879;51.416;6.678;2023-03-16T10:00:42;12.40;;;6.57;;
50900;SDS011;36879;51.416;6.678;2023-03-16T10:03:14;9.50;;;4.75;;
50900;SDS011;36879;51.416;6.678;2023-03-16T10:05:41;6.63;;;3.58;;
50900;SDS011;36879;51.416;6.678;2023-03-16T10:08:12;11.02;;;4.38;;
50900;SDS011;36879;51.416;6.678;2023-03-16T10:15:45;7.93;;;4.13;;
50900;SDS011;36879;51.416;6.678;2023-03-16T10:18:17;9.35;;;4.25;;
50900;SDS011;36879;51.416;6.678;2023-03-16T10:20:45;9.25;;;3.72;;
50900;SDS011;36879;51.416;6.678;2023-03-16T10:23:24;8.65;;;4.53;;
50900;SDS011;36879;51.416;6.678;2023-03-16T10:25:51;9.90;;;4.20;;
50900;SDS011;36879;51.416;6.678;2023-03-16T10:28:19;6.22;;;4.28;;
50900;SDS011;36879;51.416;6.678;2023-03-16T10:30:46;7.43;;;4.38;;
50900;SDS011;36879;51.416;6.678;2023-03-16T10:33:20;10.18;;;3.88;;
50900;SDS011;36879;51.416;6.678;2023-03-16T10:38:27;10.77;;;4.50;;
50900;SDS011;36879;51.416;6.678;2023-03-16T10:40:53;6.05;;;3.65;;
50900;SDS011;36879;51.416;6.678;2023-03-16T10:43:21;10.63;;;4.82;;
50900;SDS011;36879;51.416;6.678;2023-03-16T10:45:48;12.50;;;5.22;;
50900;SDS011;36879;51.416;6.678;2023-03-16T10:48:19;14.73;;;6.03;;
50900;SDS011;36879;51.416;6.678;2023-03-16T10:50:53;10.43;;;4.20;;
50900;SDS011;36879;51.416;6.678;2023-03-16T10:53:25;7.50;;;4.80;;
50900;SDS011;36879;51.416;6.678;2023-03-16T10:55:59;6.60;;;3.90;;
50900;SDS011;36879;51.416;6.678;2023-03-16T10:58:30;10.80;;;4.15;;
50900;SDS011;36879;51.416;6.678;2023-03-16T11:00:57;8.52;;;4.40;;
50900;SDS011;36879;51.416;6.678;2023-03-16T11:03:28;7.88;;;4.05;;
50900;SDS011;36879;51.416;6.678;2023-03-16T11:06:06;9.50;;;4.70;;
50900;SDS011;36879;51.416;6.678;2023-03-16T11:08:35;9.75;;;4.55;;
50900;SDS011;36879;51.416;6.678;2023-03-16T11:13:36;8.82;;;3.35;;
50900;SDS011;36879;51.416;6.678;2023-03-16T11:18:49;6.20;;;3.28;;
50900;SDS011;36879;51.416;6.678;2023-03-16T11:21:24;6.88;;;3.33;;
50900;SDS011;36879;51.416;6.678;2023-03-16T11:23:54;5.47;;;3.63;;
50900;SDS011;36879;51.416;6.678;2023-03-16T11:26:26;5.90;;;3.40;;
50900;SDS011;36879;51.416;6.678;2023-03-16T11:29:01;7.07;;;2.45;;
50900;SDS011;36879;51.416;6.678;2023-03-16T11:34:28;5.40;;;3.55;;
50900;SDS011;36879;51.416;6.678;2023-03-16T11:39:27;6.00;;;2.30;;
50900;SDS011;36879;51.416;6.678;2023-03-16T11:42:06;4.97;;;2.70;;
50900;SDS011;36879;51.416;6.678;2023-03-16T11:44:52;5.53;;;2.42;;
50900;SDS011;36879;51.416;6.678;2023-03-16T12:03:03;8.43;;;2.65;;
50900;SDS011;36879;51.416;6.678;2023-03-16T12:05:40;5.75;;;2.30;;
50900;SDS011;36879;51.416;6.678;2023-03-16T12:08:55;4.93;;;2.20;;
50900;SDS011;36879;51.416;6.678;2023-03-16T12:11:04;5.60;;;2.92;;
50900;SDS011;36879;51.416;6.678;2023-03-16T12:13:40;5.88;;;2.58;;
50900;SDS011;36879;51.416;6.678;2023-03-16T12:18:41;4.05;;;2.28;;
50900;SDS011;36879;51.416;6.678;2023-03-16T12:21:12;3.55;;;1.88;;
50900;SDS011;36879;51.416;6.678;2023-03-16T12:23:42;3.92;;;2.05;;
50900;SDS011;36879;51.416;6.678;2023-03-16T12:26:14;4.33;;;2.20;;
50900;SDS011;36879;51.416;6.678;2023-03-16T12:28:41;5.53;;;2.17;;
50900;SDS011;36879;51.416;6.678;2023-03-16T12:38:52;5.53;;;2.05;;
50900;SDS011;36879;51.416;6.678;2023-03-16T12:46:58;5.53;;;2.22;;
50900;SDS011;36879;51.416;6.678;2023-03-16T12:49:25;3.60;;;2.35;;
50900;SDS011;36879;51.416;6.678;2023-03-16T12:52:03;4.70;;;1.92;;
50900;SDS011;36879;51.416;6.678;2023-03-16T12:54:29;7.57;;;2.67;;
50900;SDS011;36879;51.416;6.678;2023-03-16T12:57:02;7.03;;;2.95;;
50900;SDS011;36879;51.416;6.678;2023-03-16T12:59:53;7.75;;;2.22;;
50900;SDS011;36879;51.416;6.678;2023-03-16T13:02:19;7.13;;;3.03;;
50900;SDS011;36879;51.416;6.678;2023-03-16T13:04:47;4.70;;;2.22;;
50900;SDS011;36879;51.416;6.678;2023-03-16T13:07:17;4.57;;;2.92;;
50900;SDS011;36879;51.416;6.678;2023-03-16T13:09:46;7.20;;;3.42;;
50900;SDS011;36879;51.416;6.678;2023-03-16T13:12:23;7.05;;;2.58;;
50900;SDS011;36879;51.416;6.678;2023-03-16T13:14:50;5.50;;;2.35;;
50900;SDS011;36879;51.416;6.678;2023-03-16T13:20:31;5.35;;;1.80;;
50900;SDS011;36879;51.416;6.678;2023-03-16T13:22:47;3.13;;;1.55;;
50900;SDS011;36879;51.416;6.678;2023-03-16T13:27:49;11.30;;;2.60;;
50900;SDS011;36879;51.416;6.678;2023-03-16T13:32:51;5.47;;;2.15;;
50900;SDS011;36879;51.416;6.678;2023-03-16T13:35:18;3.55;;;1.63;;
50900;SDS011;36879;51.416;6.678;2023-03-16T13:37:44;3.47;;;1.60;;
50900;SDS011;36879;51.416;6.678;2023-03-16T13:40:21;2.45;;;1.35;;
50900;SDS011;36879;51.416;6.678;2023-03-16T13:42:48;5.55;;;1.77;;
50900;SDS011;36879;51.416;6.678;2023-03-16T13:45:21;4.75;;;1.90;;
50900;SDS011;36879;51.416;6.678;2023-03-16T13:47:48;4.20;;;1.60;;
50900;SDS011;36879;51.416;6.678;2023-03-16T13:50:15;3.03;;;1.55;;
50900;SDS011;36879;51.416;6.678;2023-03-16T13:52:41;3.72;;;1.67;;
50900;SDS011;36879;51.416;6.678;2023-03-16T13:55:20;6.82;;;1.90;;
50900;SDS011;36879;51.416;6.678;2023-03-16T13:57:48;4.78;;;1.73;;
50900;SDS011;36879;51.416;6.678;2023-03-16T14:00:18;2.53;;;1.42;;
50900;SDS011;36879;51.416;6.678;2023-03-16T14:02:46;4.07;;;1.92;;
50900;SDS011;36879;51.416;6.678;2023-03-16T14:05:17;3.85;;;1.63;;
50900;SDS011;36879;51.416;6.678;2023-03-16T14:07:47;4.20;;;1.42;;
50900;SDS011;36879;51.416;6.678;2023-03-16T14:10:15;4.10;;;1.98;;
50900;SDS011;36879;51.416;6.678;2023-03-16T14:12:54;4.65;;;1.27;;
50900;SDS011;36879;51.416;6.678;2023-03-16T14:15:21;3.28;;;1.20;;
50900;SDS011;36879;51.416;6.678;2023-03-16T14:17:50;2.13;;;1.58;;
50900;SDS011;36879;51.416;6.678;2023-03-16T14:20:17;2.75;;;1.38;;
50900;SDS011;36879;51.416;6.678;2023-03-16T14:22:44;3.65;;;1.63;;
50900;SDS011;36879;51.416;6.678;2023-03-16T14:25:14;5.00;;;1.63;;
50900;SDS011;36879;51.416;6.678;2023-03-16T14:27:42;4.45;;;1.20;;
50900;SDS011;36879;51.416;6.678;2023-03-16T14:32:52;5.57;;;1.60;;
50900;SDS011;36879;51.416;6.678;2023-03-16T14:35:19;3.00;;;1.00;;
50900;SDS011;36879;51.416;6.678;2023-03-16T14:37:46;4.63;;;1.30;;
50900;SDS011;36879;51.416;6.678;2023-03-16T14:40:21;3.13;;;1.20;;
50900;SDS011;36879;51.416;6.678;2023-03-16T14:42:48;2.80;;;1.40;;
50900;SDS011;36879;51.416;6.678;2023-03-16T14:45:14;3.53;;;1.88;;
50900;SDS011;36879;51.416;6.678;2023-03-16T14:47:42;4.07;;;1.17;;
50900;SDS011;36879;51.416;6.678;2023-03-16T14:50:14;3.78;;;1.30;;
50900;SDS011;36879;51.416;6.678;2023-03-16T14:52:41;3.45;;;1.63;;
50900;SDS011;36879;51.416;6.678;2023-03-16T14:55:13;3.22;;;1.50;;
50900;SDS011;36879;51.416;6.678;2023-03-16T14:57:40;5.25;;;2.28;;
50900;SDS011;36879;51.416;6.678;2023-03-16T15:00:09;9.80;;;2.13;;
50900;SDS011;36879;51.416;6.678;2023-03-16T15:02:37;4.68;;;2.05;;
50900;SDS011;36879;51.416;6.678;2023-03-16T15:05:04;4.22;;;1.95;;
50900;SDS011;36879;51.416;6.678;2023-03-16T15:07:37;4.28;;;2.38;;
50900;SDS011;36879;51.416;6.678;2023-03-16T15:12:31;3.92;;;1.80;;
50900;SDS011;36879;51.416;6.678;2023-03-16T15:14:58;4.15;;;1.42;;
50900;SDS011;36879;51.416;6.678;2023-03-16T15:17:50;3.97;;;1.90;;
50900;SDS011;36879;51.416;6.678;2023-03-16T15:20:18;4.03;;;2.15;;
50900;SDS011;36879;51.416;6.678;2023-03-16T15:22:45;5.20;;;2.13;;
50900;SDS011;36879;51.416;6.678;2023-03-16T15:27:44;6.75;;;2.13;;
50900;SDS011;36879;51.416;6.678;2023-03-16T15:30:15;5.65;;;2.72;;
50900;SDS011;36879;51.416;6.678;2023-03-16T15:32:42;6.95;;;2.30;;
50900;SDS011;36879;51.416;6.678;2023-03-16T15:35:08;3.92;;;2.25;;
50900;SDS011;36879;51.416;6.678;2023-03-16T15:37:34;7.15;;;2.03;;
50900;SDS011;36879;51.416;6.678;2023-03-16T15:40:00;4.57;;;1.95;;
50900;SDS011;36879;51.416;6.678;2023-03-16T15:42:26;4.88;;;2.30;;
50900;SDS011;36879;51.416;6.678;2023-03-16T15:44:52;4.82;;;2.35;;
50900;SDS011;36879;51.416;6.678;2023-03-16T15:47:18;7.03;;;2.63;;
50900;SDS011;36879;51.416;6.678;2023-03-16T15:49:45;4.90;;;2.53;;
50900;SDS011;36879;51.416;6.678;2023-03-16T15:52:20;3.83;;;1.85;;
50900;SDS011;36879;51.416;6.678;2023-03-16T15:54:46;4.50;;;1.77;;
50900;SDS011;36879;51.416;6.678;2023-03-16T15:57:12;5.78;;;2.30;;
50900;SDS011;36879;51.416;6.678;2023-03-16T15:59:38;5.25;;;2.58;;
50900;SDS011;36879;51.416;6.678;2023-03-16T16:02:20;7.07;;;3.20;;
50900;SDS011;36879;51.416;6.678;2023-03-16T16:04:48;8.93;;;4.07;;
50900;SDS011;36879;51.416;6.678;2023-03-16T16:07:14;8.43;;;2.88;;
50900;SDS011;36879;51.416;6.678;2023-03-16T16:09:41;7.10;;;2.10;;
50900;SDS011;36879;51.416;6.678;2023-03-16T16:12:10;6.75;;;1.77;;
50900;SDS011;36879;51.416;6.678;2023-03-16T16:14:37;4.15;;;1.65;;
50900;SDS011;36879;51.416;6.678;2023-03-16T16:17:09;5.05;;;2.10;;
50900;SDS011;36879;51.416;6.678;2023-03-16T16:19:35;6.90;;;1.77;;
50900;SDS011;36879;51.416;6.678;2023-03-16T16:22:01;4.82;;;2.95;;
50900;SDS011;36879;51.416;6.678;2023-03-16T16:24:28;4.00;;;2.10;;
50900;SDS011;36879;51.416;6.678;2023-03-16T16:26:54;4.88;;;2.58;;
50900;SDS011;36879;51.416;6.678;2023-03-16T16:29:24;9.48;;;3.30;;
50900;SDS011;36879;51.416;6.678;2023-03-16T16:31:51;9.18;;;3.85;;
50900;SDS011;36879;51.416;6.678;2023-03-16T16:34:17;10.15;;;3.83;;
50900;SDS011;36879;51.416;6.678;2023-03-16T16:36:45;9.85;;;3.17;;
50900;SDS011;36879;51.416;6.678;2023-03-16T16:39:11;7.30;;;3.10;;
50900;SDS011;36879;51.416;6.678;2023-03-16T16:41:37;16.25;;;6.72;;
50900;SDS011;36879;51.416;6.678;2023-03-16T16:44:03;30.98;;;13.88;;
50900;SDS011;36879;51.416;6.678;2023-03-16T16:46:39;24.95;;;10.00;;
50900;SDS011;36879;51.416;6.678;2023-03-16T16:49:09;16.67;;;7.55;;
50900;SDS011;36879;51.416;6.678;2023-03-16T16:51:37;14.93;;;5.72;;
50900;SDS011;36879;51.416;6.678;2023-03-16T16:54:06;11.07;;;5.00;;
50900;SDS011;36879;51.416;6.678;2023-03-16T16:56:37;7.55;;;2.03;;
50900;SDS011;36879;51.416;6.678;2023-03-16T17:01:39;5.50;;;2.55;;
50900;SDS011;36879;51.416;6.678;2023-03-16T17:04:10;8.63;;;3.53;;
50900;SDS011;36879;51.416;6.678;2023-03-16T17:06:37;7.63;;;3.03;;
50900;SDS011;36879;51.416;6.678;2023-03-16T17:09:03;8.73;;;2.53;;
50900;SDS011;36879;51.416;6.678;2023-03-16T17:11:30;9.73;;;3.40;;
50900;SDS011;36879;51.416;6.678;2023-03-16T17:13:57;8.55;;;3.75;;
50900;SDS011;36879;51.416;6.678;2023-03-16T17:16:23;12.52;;;2.88;;
50900;SDS011;36879;51.416;6.678;2023-03-16T17:18:50;8.45;;;3.58;;
50900;SDS011;36879;51.416;6.678;2023-03-16T17:21:18;9.45;;;3.85;;
50900;SDS011;36879;51.416;6.678;2023-03-16T17:23:45;5.03;;;2.75;;
50900;SDS011;36879;51.416;6.678;2023-03-16T17:26:21;4.72;;;2.25;;
50900;SDS011;36879;51.416;6.678;2023-03-16T17:31:17;5.13;;;3.38;;
50900;SDS011;36879;51.416;6.678;2023-03-16T17:33:43;6.30;;;3.00;;
50900;SDS011;36879;51.416;6.678;2023-03-16T17:36:16;8.00;;;3.08;;
50900;SDS011;36879;51.416;6.678;2023-03-16T17:38:42;6.28;;;3.42;;
50900;SDS011;36879;51.416;6.678;2023-03-16T17:43:47;12.05;;;4.22;;
50900;SDS011;36879;51.416;6.678;2023-03-16T17:46:14;6.57;;;3.15;;
50900;SDS011;36879;51.416;6.678;2023-03-16T17:48:43;12.70;;;4.93;;
50900;SDS011;36879;51.416;6.678;2023-03-16T17:51:11;10.52;;;4.85;;
50900;SDS011;36879;51.416;6.678;2023-03-16T17:53:39;9.10;;;3.97;;
50900;SDS011;36879;51.416;6.678;2023-03-16T17:56:15;11.75;;;3.67;;
50900;SDS011;36879;51.416;6.678;2023-03-16T17:58:41;15.57;;;5.15;;
50900;SDS011;36879;51.416;6.678;2023-03-16T18:01:09;10.02;;;4.40;;
50900;SDS011;36879;51.416;6.678;2023-03-16T18:03:35;8.15;;;4.07;;
50900;SDS011;36879;51.416;6.678;2023-03-16T18:06:01;6.35;;;4.15;;
50900;SDS011;36879;51.416;6.678;2023-03-16T18:08:28;9.57;;;4.05;;
50900;SDS011;36879;51.416;6.678;2023-03-16T18:11:05;8.30;;;3.22;;
50900;SDS011;36879;51.416;6.678;2023-03-16T18:13:33;7.05;;;3.13;;
50900;SDS011;36879;51.416;6.678;2023-03-16T18:16:00;8.88;;;3.92;;
50900;SDS011;36879;51.416;6.678;2023-03-16T18:18:30;11.32;;;3.97;;
50900;SDS011;36879;51.416;6.678;2023-03-16T18:20:57;9.63;;;3.55;;
50900;SDS011;36879;51.416;6.678;2023-03-16T18:23:28;8.38;;;4.45;;
50900;SDS011;36879;51.416;6.678;2023-03-16T18:25:55;10.15;;;3.50;;
50900;SDS011;36879;51.416;6.678;2023-03-16T18:28:26;7.95;;;3.35;;
50900;SDS011;36879;51.416;6.678;2023-03-16T18:30:52;7.00;;;3.40;;
50900;SDS011;36879;51.416;6.678;2023-03-16T18:33:40;11.18;;;4.72;;
50900;SDS011;36879;51.416;6.678;2023-03-16T18:38:35;8.70;;;3.85;;
50900;SDS011;36879;51.416;6.678;2023-03-16T18:43:37;9.98;;;4.43;;
50900;SDS011;36879;51.416;6.678;2023-03-16T18:46:03;10.15;;;5.50;;
50900;SDS011;36879;51.416;6.678;2023-03-16T18:48:30;16.65;;;4.63;;
50900;SDS011;36879;51.416;6.678;2023-03-16T18:50:57;10.02;;;5.43;;
50900;SDS011;36879;51.416;6.678;2023-03-16T18:53:24;10.48;;;4.25;;
50900;SDS011;36879;51.416;6.678;2023-03-16T18:55:51;6.03;;;3.30;;
50900;SDS011;36879;51.416;6.678;2023-03-16T18:58:19;10.32;;;3.45;;
50900;SDS011;36879;51.416;6.678;2023-03-16T19:00:55;9.48;;;4.20;;
50900;SDS011;36879;51.416;6.678;2023-03-16T19:03:26;8.38;;;4.15;;
50900;SDS011;36879;51.416;6.678;2023-03-16T19:05:53;10.45;;;4.25;;
50900;SDS011;36879;51.416;6.678;2023-03-16T19:08:20;15.48;;;4.95;;
50900;SDS011;36879;51.416;6.678;2023-03-16T19:11:04;12.45;;;4.15;;
50900;SDS011;36879;51.416;6.678;2023-03-16T19:13:31;11.32;;;4.70;;
50900;SDS011;36879;51.416;6.678;2023-03-16T19:15:57;7.82;;;3.67;;
50900;SDS011;36879;51.416;6.678;2023-03-16T19:18:24;9.20;;;3.80;;
50900;SDS011;36879;51.416;6.678;2023-03-16T19:20:50;8.65;;;3.78;;
50900;SDS011;36879;51.416;6.678;2023-03-16T19:23:18;15.52;;;4.20;;
50900;SDS011;36879;51.416;6.678;2023-03-16T19:25:47;7.10;;;3.75;;
50900;SDS011;36879;51.416;6.678;2023-03-16T19:28:27;12.15;;;3.83;;
50900;SDS011;36879;51.416;6.678;2023-03-16T19:30:57;8.60;;;3.60;;
50900;SDS011;36879;51.416;6.678;2023-03-16T19:33:24;14.60;;;4.85;;
50900;SDS011;36879;51.416;6.678;2023-03-16T19:35:50;8.23;;;4.05;;
50900;SDS011;36879;51.416;6.678;2023-03-16T19:38:17;12.25;;;4.63;;
50900;SDS011;36879;51.416;6.678;2023-03-16T19:40:43;7.68;;;4.30;;
50900;SDS011;36879;51.416;6.678;2023-03-16T19:43:13;7.03;;;3.85;;
50900;SDS011;36879;51.416;6.678;2023-03-16T19:45:40;24.90;;;5.03;;
50900;SDS011;36879;51.416;6.678;2023-03-16T19:50:51;10.00;;;4.90;;
50900;SDS011;36879;51.416;6.678;2023-03-16T19:53:18;11.40;;;4.72;;
50900;SDS011;36879;51.416;6.678;2023-03-16T19:55:45;11.88;;;5.18;;
50900;SDS011;36879;51.416;6.678;2023-03-16T19:58:20;11.20;;;5.40;;
50900;SDS011;36879;51.416;6.678;2023-03-16T20:00:48;15.45;;;6.78;;
50900;SDS011;36879;51.416;6.678;2023-03-16T20:03:14;14.50;;;5.82;;
50900;SDS011;36879;51.416;6.678;2023-03-16T20:05:41;12.55;;;4.70;;
50900;SDS011;36879;51.416;6.678;2023-03-16T20:08:21;9.25;;;3.70;;
50900;SDS011;36879;51.416;6.678;2023-03-16T20:10:47;11.50;;;3.53;;